Skip Navigation Links
NOAA logo - Click to go to the NOAA homepage
NOAA's National Weather Service
Alaska Aviation Weather Unit
  NWS logo - Click to go to the NWS homepage
Left Navbar Graphic     23 AKDT = 07 GMT

   
NOAA is celebrating 200 years of science, service, and stewardship. Visit the NOAA 200th celebration Web site to learn more.
USA.gov is the U.S. Government's official Web portal to all Federal, state and local government Web resources and services.
Facebook
NWS on Facebook

Important Change Regarding the AAWU Web Presence

 

Over the last several months, the AAWU has been working to navigate its webpages to a nationally supported server. Security, as well as other needs, have necessitated the change.  In the process, we have made an effort to enhance the functionality of our website, as well as some of our products. As of June 20, 2017, aawu.arh.noaa.gov will be discontinued. The new AAWU web address is weather.gov/aawu. It is now live and will run in-parallel with the old site until it is discontinued. Please send any feedback or questions regarding the new webpages to nws.ar.aawu.webauthors@noaa.gov.  Thank you for your patience during this time of transition.
AAWU Home :: Display TAF Add Bookmark
TAF PAKN 240530Z 2406/2506 16012KT 6SM -RA FEW015 SCT025 OVC040
      TEMPO 2406/2408 BKN025
     FM240800 17015KT 6SM -RA BR SCT007 OVC015
     FM241200 19015KT 5SM -RA BR BKN007 OVC015
     FM241700 22018G25KT P6SM -SHRA SCT015 OVC025=
PAKN 240130Z 16016KT 9SM -RA SCT021 OVC034 10/08 A2993=

PAKN 240130Z 16016KT 9SM -RA SCT021 OVC034 10/08 A2993 RMK AO2
     P0000 T01000078=

METAR PAKN 240154Z 15014KT 7SM -RA FEW019 SCT026 OVC034 09/08 A2993=

METAR PAKN 240254Z 15012KT 8SM -RA FEW017 SCT028 OVC032 09/08 A2990=

METAR PAKN 240354Z 16011KT 10SM -RA FEW032 BKN042 OVC055 09/07 A2989=

METAR PAKN 240454Z 15013KT 7SM -RA OVC042 08/07 A2987=

METAR PAKN 240554Z 15011KT 6SM -RA BR SCT034 OVC044 08/07 A2986=

METAR PAKN 240654Z 15012KT 10SM -RA SCT028 BKN047 OVC065 08/07 A2984=

SPECI PAKN 240751Z 16014KT 10SM -RA FEW023 BKN028 OVC045 08/07 A2984
 RMK AO2 P0000=


NOAA's National Weather Service
Alaska Aviation Weather Unit
6930 Sand Lake Road
Anchorage, AK 99502-1845
Disclaimer
Credits
Glossary
Privacy Policy
About Us
Career Opportunities
Contact AAWU Internet Services Site last modified: April, 17th 2012